Home > Products > Valid Products > TAF

000
FTUS41 KRLX 200500
TAFEKN
TAF
KEKN 200536Z 2006/2106 00000KT P6SM BKN012
     FM200800 00000KT P6SM BKN200
     FM201600 12003KT P6SM OVC250
     FM210000 00000KT P6SM OVC060=



000
FTUS41 KRLX 200500
TAFBKW
TAF
KBKW 200536Z 2006/2106 VRB03KT P6SM BKN008
     FM200800 00000KT P6SM BKN200
     FM201400 00000KT P6SM OVC025
     FM201600 VRB03KT P6SM OVC060
     FM202000 12004KT P6SM OVC025
     FM210200 00000KT P6SM BKN018
     FM210500 00000KT P6SM BKN024=



000
FTUS41 KRLX 200500
TAFCRW
TAF
KCRW 200536Z 2006/2106 06004KT P6SM OVC020
     FM200900 00000KT P6SM BKN250
     FM201600 06003KT P6SM OVC090
     FM202300 00000KT P6SM BKN060=



000
FTUS41 KRLX 200500
TAFPKB
TAF
KPKB 200536Z 2006/2106 00000KT P6SM OVC020
     FM201400 00000KT P6SM OVC130
     FM201800 06004KT P6SM BKN025
     FM202300 00000KT P6SM OVC025
     FM210300 00000KT P6SM OVC020=



000
FTUS41 KRLX 200500
TAFCKB
TAF
KCKB 200536Z 2006/2106 00000KT P6SM OVC020
     FM200900 00000KT P6SM BKN150
     FM201600 04003KT P6SM OVC150
     FM210000 00000KT P6SM OVC070
     FM210500 00000KT P6SM BKN030=



000
FTUS41 KRLX 200500
TAFHTS
TAF
KHTS 200536Z 2006/2106 06004KT P6SM OVC020
     FM200900 00000KT P6SM BKN250
     FM201600 06003KT P6SM OVC090
     FM210300 00000KT P6SM BKN035=



000
FTUS41 KRLX 200200 AAA
TAFHTS
TAF AMD
KHTS 200256Z 2003/2024 00000KT P6SM OVC025
     FM201000 VRB03KT P6SM BKN035=



000
FTUS41 KRLX 200200 AAB
TAFBKW
TAF AMD
KBKW 200256Z 2003/2024 01005KT P6SM OVC009
     FM201000 VRB03KT P6SM OVC015
     FM201200 VRB03KT 6SM -SN OVC015
     FM201400 VRB03KT 5SM -SN OVC015
     FM201600 28004KT P6SM -RASN OVC020
     FM201800 32006KT P6SM OVC020=



000
FTUS41 KRLX 200200 AAA
TAFCRW
TAF AMD
KCRW 200256Z 2003/2024 00000KT P6SM OVC025
     FM200900 00000KT P6SM BKN035
     FM201500 VRB03KT P6SM BKN050=



000
FTUS41 KRLX 200200 AAA
TAFEKN
TAF AMD
KEKN 200256Z 2003/2024 31004KT P6SM OVC013
     FM201000 00000KT P6SM BKN025
     FM201500 VRB03KT P6SM BKN040=



000
FTUS41 KRLX 200200 AAA
TAFCKB
TAF AMD
KCKB 200256Z 2003/2024 34003KT P6SM OVC019
     FM200800 00000KT P6SM OVC025
     FM201500 VRB03KT P6SM BKN035=



000
FTUS41 KRLX 200200 AAA
TAFPKB
TAF AMD
KPKB 200256Z 2003/2024 00000KT P6SM OVC025
     FM201200 VRB03KT P6SM BKN035=



000
FTUS41 KRLX 200100 AAA
TAFBKW
TAF AMD
KBKW 200116Z 2001/2024 35006KT P6SM BKN015
     FM201200 00000KT 6SM -SN BKN015
     FM201400 VRB03KT 5SM -SN OVC015
     FM201600 28004KT P6SM -RASN OVC020
     FM201800 32006KT P6SM OVC020=



000
FTUS41 KRLX 200100 AAA
TAFBKW
TAF AMD
KBKW 200116Z 2001/2024 35006KT P6SM BKN015
     FM201200 00000KT 6SM -SN BKN015
     FM201400 VRB03KT 5SM -SN OVC015
     FM201600 28004KT P6SM -RASN OVC020
     FM201800 32006KT P6SM OVC020=



000
FTUS41 KRLX 192300
TAFEKN
TAF
KEKN 192321Z 2000/2024 31004KT P6SM BKN015
     FM200700 00000KT P6SM BKN025
     FM201500 VRB03KT P6SM BKN040=



000
FTUS41 KRLX 192300
TAFPKB
TAF
KPKB 192321Z 2000/2024 00000KT P6SM BKN025
     FM201200 VRB03KT P6SM BKN035=



000
FTUS41 KRLX 192300
TAFCKB
TAF
KCKB 192321Z 2000/2024 00000KT P6SM BKN025
     FM201500 VRB03KT P6SM BKN035=



000
FTUS41 KRLX 192300
TAFCRW
TAF
KCRW 192321Z 2000/2024 00000KT P6SM BKN025
     FM200900 00000KT P6SM BKN035
     FM201500 VRB03KT P6SM BKN050=



000
FTUS41 KRLX 192300
TAFHTS
TAF
KHTS 192321Z 2000/2024 00000KT P6SM BKN025
     FM201000 VRB03KT P6SM BKN035=



000
FTUS41 KRLX 192300
TAFBKW
TAF
KBKW 192321Z 2000/2024 35006KT P6SM SCT250
     FM200900 00000KT P6SM BKN040
     FM201200 00000KT 6SM -SN BKN025
     FM201400 VRB03KT 5SM -SN OVC015
     FM201600 28004KT P6SM -RASN OVC020
     FM201800 32006KT P6SM OVC020=



000
FTUS41 KRLX 191900 AAA
TAFCKB
TAF AMD
KCKB 191934Z 1920/2018 25005KT P6SM OVC015
     FM200200 00000KT P6SM BKN025
     FM201200 00000KT P6SM BKN050=



000
FTUS41 KRLX 191900 AAA
TAFCKB
TAF AMD
KCKB 191934Z 1920/2018 25005KT P6SM OVC015
     FM200200 00000KT P6SM BKN025
     FM201200 00000KT P6SM BKN050=



000
FTUS41 KRLX 191700
TAFHTS
TAF
KHTS 191723Z 1918/2018 00000KT P6SM OVC025
     FM200900 00000KT P6SM OVC050=



000
FTUS41 KRLX 191700
TAFEKN
TAF
KEKN 191723Z 1918/2018 30005KT P6SM OVC015
     FM192200 30005KT P6SM OVC025
     FM201200 00000KT P6SM BKN050=



000
FTUS41 KRLX 191700
TAFCRW
TAF
KCRW 191723Z 1918/2018 VRB03KT P6SM OVC020
     FM201000 00000KT P6SM OVC050=



000
FTUS41 KRLX 191700
TAFPKB
TAF
KPKB 191723Z 1918/2018 VRB03KT P6SM OVC025
     FM201100 00000KT P6SM BKN050=



000
FTUS41 KRLX 191700
TAFCKB
TAF
KCKB 191723Z 1918/2018 25005KT P6SM OVC025
     FM200200 00000KT P6SM BKN015
     FM201200 00000KT P6SM BKN050=



000
FTUS41 KRLX 191700
TAFBKW
TAF
KBKW 191723Z 1918/2018 29005KT P6SM OVC015
     FM191900 30005KT P6SM SCT015 BKN035
     FM192100 00000KT P6SM BKN100
     FM200100 00000KT P6SM BKN040
     FM201700 30004KT P6SM OVC025=



000
FTUS41 KRLX 191600 CCA
TAFCRW
TAF COR
KCRW 191601Z 1916/2012 VRB03KT P6SM OVC019
     FM200300 00000KT P6SM SCT025=



000
FTUS41 KRLX 191600 AAA
TAFCRW
TAF AMD
KCRW 191600Z 1916/2012 00000KT P6SM OVC019
     FM200300 00000KT P6SM SCT025=



000
FTUS41 KRLX 191500 AAB
TAFBKW
TAF AMD
KBKW 191502Z 1915/2012 31004KT P6SM OVC012
     FM191800 30005KT P6SM BKN020
     FM192000 30005KT P6SM SCT025=



000
FTUS41 KRLX 191500 AAA
TAFEKN
TAF AMD
KEKN 191501Z 1915/2012 28004KT P6SM OVC015
     FM191800 30005KT P6SM BKN020
     FM192000 00000KT P6SM SCT025=



000
FTUS41 KRLX 191400 AAA
TAFBKW
TAF AMD
KBKW 191430Z 1915/2012 31004KT P6SM OVC012
     FM191500 30005KT P6SM BKN020
     FM191600 30005KT P6SM SCT025=



000
FTUS41 KRLX 191200 AAA
TAFHTS
TAF AMD
KHTS 191224Z 1912/2012 00000KT P6SM OVC020
     FM191700 00000KT P6SM SCT025=



000
FTUS41 KRLX 191100
TAFCRW
TAF
KCRW 191140Z 1912/2012 00000KT P6SM OVC025
     FM200300 00000KT P6SM SCT025=



000
FTUS41 KRLX 191100
TAFCKB
TAF
KCKB 191140Z 1912/2012 VRB03KT P6SM OVC020=



000
FTUS41 KRLX 191100
TAFBKW
TAF
KBKW 191140Z 1912/2012 31004KT P6SM OVC012
      TEMPO 1912/1913 OVC009
     FM191400 30005KT P6SM BKN020
     FM191600 30005KT P6SM SCT025=



000
FTUS41 KRLX 191100
TAFPKB
TAF
KPKB 191140Z 1912/2012 00000KT P6SM OVC025=



000
FTUS41 KRLX 191100
TAFEKN
TAF
KEKN 191140Z 1912/2012 28004KT P6SM OVC015
     FM191500 30005KT P6SM BKN020
     FM191800 00000KT P6SM SCT025=



000
FTUS41 KRLX 191100
TAFHTS
TAF
KHTS 191140Z 1912/2012 00000KT P6SM OVC025
     FM191700 00000KT P6SM SCT025=



000
FTUS41 KRLX 190900 AAB
TAFCKB
TAF AMD
KCKB 190903Z 1909/2006 VRB03KT 6SM BR OVC016
     FM191400 26004KT P6SM OVC020
     FM191500 26004KT P6SM OVC025
     FM192300 28004KT P6SM SCT030
     FM200400 00000KT P6SM BKN030=



000
FTUS41 KRLX 190900 AAA
TAFHTS
TAF AMD
KHTS 190903Z 1909/2006 00000KT P6SM BKN022
     FM191700 00000KT P6SM SCT030
     FM200200 00000KT P6SM BKN045=



000
FTUS41 KRLX 190900 AAB
TAFBKW
TAF AMD
KBKW 190903Z 1909/2006 32005KT P6SM BKN012
      TEMPO 1909/1912 BKN008
     FM191500 30005KT P6SM SCT035
     FM200200 VRB03KT P6SM BKN080=



000
FTUS41 KRLX 190900 AAA
TAFEKN
TAF AMD
KEKN 190903Z 1909/2006 31004KT 6SM BR OVC015
     FM191400 28005KT P6SM OVC015
     FM192200 30005KT P6SM SCT020
     FM200400 00000KT P6SM BKN020=



000
FTUS41 KRLX 190900 AAA
TAFPKB
TAF AMD
KPKB 190903Z 1909/2006 VRB03KT P6SM OVC025
     FM191200 00000KT P6SM BKN020
     FM191300 00000KT P6SM BKN025
     FM192000 VRB03KT P6SM SCT030
     FM200300 00000KT P6SM BKN035=



000
FTUS41 KRLX 190900 AAA
TAFCRW
TAF AMD
KCRW 190903Z 1909/2006 00000KT P6SM BKN023
     FM191900 00000KT P6SM SCT030
     FM200200 00000KT P6SM BKN045=



000
FTUS41 KRLX 190700 AAA
TAFCKB
TAF AMD
KCKB 190752Z 1908/2006 VRB03KT 6SM BR OVC016
     FM191400 26004KT P6SM OVC020
     FM191500 26004KT P6SM OVC025
     FM192300 28004KT P6SM SCT030
     FM200400 00000KT P6SM BKN030=



000
FTUS41 KRLX 190700 AAA
TAFBKW
TAF AMD
KBKW 190751Z 1908/2006 32005KT P6SM BKN012
      TEMPO 1908/1912 BKN008
     FM191500 30005KT P6SM SCT035
     FM200200 VRB03KT P6SM BKN080=



000
FTUS41 KRLX 190500
TAFCKB
TAF
KCKB 190520Z 1906/2006 27004KT P6SM OVC025
     FM190800 VRB03KT 6SM BR OVC020
     FM191400 26004KT P6SM OVC020
     FM191500 26004KT P6SM OVC025
     FM192300 28004KT P6SM SCT030
     FM200400 00000KT P6SM BKN030=



000
FTUS41 KRLX 190500
TAFBKW
TAF
KBKW 190520Z 1906/2006 32005KT P6SM BKN035
     FM190900 VRB03KT P6SM BKN025
     FM191500 30005KT P6SM SCT035
     FM200200 VRB03KT P6SM BKN080=



000
FTUS41 KRLX 190500
TAFHTS
TAF
KHTS 190520Z 1906/2006 00000KT P6SM BKN023
     FM191700 00000KT P6SM SCT030
     FM200200 00000KT P6SM BKN045=



000
FTUS41 KRLX 190500
TAFCRW
TAF
KCRW 190520Z 1906/2006 00000KT P6SM BKN025
     FM191900 00000KT P6SM SCT030
     FM200200 00000KT P6SM BKN045=



000
FTUS41 KRLX 190500
TAFEKN
TAF
KEKN 190520Z 1906/2006 28004KT P6SM OVC015
     FM190800 29004KT 6SM BR OVC015
     FM191400 28005KT P6SM OVC015
     FM192200 30005KT P6SM SCT020
     FM200400 00000KT P6SM BKN020=



000
FTUS41 KRLX 190500
TAFPKB
TAF
KPKB 190520Z 1906/2006 VRB03KT P6SM OVC025
     FM191200 00000KT P6SM BKN020
     FM191300 00000KT P6SM BKN025
     FM192000 VRB03KT P6SM SCT030
     FM200300 00000KT P6SM BKN035=



000
FTUS41 KRLX 190200 AAA
TAFCRW
TAF AMD
KCRW 190232Z 1903/1924 VRB03KT P6SM BKN070
     FM190900 00000KT P6SM BKN030
     FM191500 32003KT P6SM SCT030 SCT250=



000
FTUS41 KRLX 190200 AAA
TAFCKB
TAF AMD
KCKB 190232Z 1903/1924 VRB03KT 6SM -SHSN OVC025
     FM191500 26004KT P6SM OVC025
     FM192000 28005KT P6SM SCT030 SCT250=



000
FTUS41 KRLX 190200 AAA
TAFBKW
TAF AMD
KBKW 190232Z 1903/1924 VRB03KT P6SM BKN060
     FM190900 32005KT P6SM BKN025
     FM191700 30005KT P6SM SCT035 SCT250=



000
FTUS41 KRLX 190200 AAA
TAFPKB
TAF AMD
KPKB 190232Z 1903/1924 VRB03KT P6SM -SHSN OVC025
     FM191300 28003KT P6SM BKN025
     FM192000 30003KT P6SM SCT030 SCT250=



000
FTUS41 KRLX 190200 AAA
TAFHTS
TAF AMD
KHTS 190232Z 1903/1924 VRB03KT P6SM OVC080
     FM191700 VRB03KT P6SM SCT030 SCT250=



000
FTUS41 KRLX 190200 AAA
TAFEKN
TAF AMD
KEKN 190232Z 1903/1924 29004KT 6SM -SHSN OVC025
     FM191400 28005KT P6SM OVC015
     FM192200 30005KT P6SM SCT020 SCT250=



000
FTUS41 KRLX 182300
TAFCRW
TAF
KCRW 182322Z 1900/1924 VRB03KT P6SM BKN070
     FM190600 00000KT P6SM BKN030
     FM191500 32003KT P6SM SCT030 SCT250=



000
FTUS41 KRLX 182300
TAFBKW
TAF
KBKW 182322Z 1900/1924 VRB03KT P6SM BKN060
     FM190600 32005KT P6SM BKN020
     FM191500 30005KT P6SM BKN025
     FM191700 30005KT P6SM SCT035 SCT250=



000
FTUS41 KRLX 182300
TAFPKB
TAF
KPKB 182322Z 1900/1924 VRB03KT P6SM -SHSN OVC025
     FM191300 28003KT P6SM BKN025
     FM192000 30003KT P6SM SCT030 SCT250=



000
FTUS41 KRLX 182300
TAFCKB
TAF
KCKB 182322Z 1900/1924 27004KT 6SM -SHSN OVC017
     FM190800 VRB03KT 6SM -SHSN OVC020
     FM191500 26004KT P6SM OVC025
     FM192000 28005KT P6SM SCT030 SCT250=



000
FTUS41 KRLX 182300
TAFEKN
TAF
KEKN 182322Z 1900/1924 29004KT 6SM -SHSN OVC015
     FM191400 28005KT P6SM OVC015
     FM192200 30005KT P6SM SCT020 SCT250=



000
FTUS41 KRLX 182300
TAFHTS
TAF
KHTS 182322Z 1900/1924 VRB03KT P6SM OVC080
     FM191700 VRB03KT P6SM SCT030 SCT250=



000
FTUS41 KRLX 181900 AAA
TAFPKB
TAF AMD
KPKB 181929Z 1819/1918 27004KT P6SM OVC025
     FM182200 27004KT P6SM SCT025 BKN060
      TEMPO 1823/1902 6SM -SHSN BKN025
     FM190600 28004KT P6SM -SHSN BKN022=



000
FTUS41 KRLX 181700
TAFEKN
TAF
KEKN 181738Z 1818/1918 34009KT P6SM OVC018
     FM181900 28006KT P6SM BKN020
     FM182200 28006KT P6SM SCT020 BKN080
     FM190400 28004KT 5SM -SHSN BKN020=



000
FTUS41 KRLX 181700
TAFBKW
TAF
KBKW 181738Z 1818/1918 31005KT P6SM SCT020 BKN070
      TEMPO 1819/1821 BKN020
     FM190800 30004KT 6SM -SHSN BKN020
     FM191700 30006KT P6SM SCT025=



000
FTUS41 KRLX 181700
TAFCKB
TAF
KCKB 181738Z 1818/1918 25006KT P6SM OVC022
     FM182200 26005KT P6SM BKN025 OVC060
     FM190300 26004KT 6SM -SHSN BKN020
     FM190800 26004KT 5SM -SHSN BR OVC020
     FM191700 26006KT 6SM -SHSN BKN025=



000
FTUS41 KRLX 181700
TAFPKB
TAF
KPKB 181738Z 1818/1918 27005KT P6SM OVC025
     FM182200 27004KT P6SM SCT025 BKN060
     FM190800 28004KT P6SM -SHSN BKN022=



000
FTUS41 KRLX 181700
TAFCRW
TAF
KCRW 181738Z 1818/1918 VRB03KT P6SM BKN025 BKN090
     FM182100 VRB03KT P6SM SCT025 OVC080
     FM190700 VRB03KT P6SM -SHSN BKN025
     FM191700 VRB03KT P6SM SCT025=



000
FTUS41 KRLX 181700
TAFHTS
TAF
KHTS 181738Z 1818/1918 VRB03KT P6SM OVC024
     FM181900 VRB03KT P6SM BKN025 BKN080
     FM182100 VRB03KT P6SM SCT025 BKN070
     FM190800 31003KT P6SM BKN025
     FM191700 31005KT P6SM SCT030=



000
FTUS41 KRLX 181500 AAA
TAFCRW
TAF AMD
KCRW 181527Z 1815/1912 VRB03KT P6SM OVC025
     FM181700 VRB03KT P6SM BKN025 BKN090
     FM182100 VRB03KT P6SM SCT025 OVC080
     FM190700 VRB03KT P6SM BKN025=



000
FTUS41 KRLX 181500 AAA
TAFPKB
TAF AMD
KPKB 181527Z 1815/1912 27005KT P6SM OVC025
     FM182200 27004KT P6SM SCT025 BKN060
     FM190800 27004KT P6SM -SHSN BKN022=



000
FTUS41 KRLX 181500 AAA
TAFBKW
TAF AMD
KBKW 181527Z 1815/1912 30005KT P6SM BKN015
     FM181900 31005KT P6SM SCT020 BKN070
      TEMPO 1819/1821 BKN020
     FM190900 30004KT 6SM -SHSN BKN020=



000
FTUS41 KRLX 181500 AAA
TAFEKN
TAF AMD
KEKN 181527Z 1815/1912 34009KT P6SM OVC018
     FM181900 28006KT P6SM BKN020
     FM182100 28006KT P6SM SCT020 BKN080
     FM190400 28004KT 5SM -SHSN BKN020=



000
FTUS41 KRLX 181500 AAA
TAFHTS
TAF AMD
KHTS 181527Z 1815/1912 VRB03KT P6SM OVC022
     FM181900 VRB03KT P6SM BKN025 BKN080
     FM182100 VRB03KT P6SM SCT025 BKN060=



000
FTUS41 KRLX 181500 AAA
TAFCKB
TAF AMD
KCKB 181527Z 1815/1912 25006KT P6SM OVC022
     FM182200 26005KT P6SM BKN025 OVC060
     FM190700 26003KT 6SM -SHSN BKN020=



000
FTUS41 KRLX 181100
TAFHTS
TAF
KHTS 181122Z 1812/1912 01005KT P6SM OVC022
     FM181500 33004KT P6SM BKN060=



000
FTUS41 KRLX 181100
TAFEKN
TAF
KEKN 181122Z 1812/1912 34009KT P6SM OVC018
     FM181600 28006KT P6SM BKN040
     FM182100 28006KT P6SM BKN090
     FM190300 28004KT P6SM BKN020=



000
FTUS41 KRLX 181100
TAFCKB
TAF
KCKB 181122Z 1812/1912 28010KT P6SM OVC022
     FM181700 26005KT P6SM BKN070
     FM190700 26003KT P6SM BKN022=



000
FTUS41 KRLX 181100
TAFCRW
TAF
KCRW 181122Z 1812/1912 33004KT P6SM OVC026
     FM181600 00000KT P6SM BKN070=



000
FTUS41 KRLX 181100
TAFBKW
TAF
KBKW 181122Z 1812/1912 31007KT P6SM OVC013
     FM181800 31005KT P6SM BKN070
     FM190900 30004KT P6SM BKN020=



000
FTUS41 KRLX 181100
TAFPKB
TAF
KPKB 181122Z 1812/1912 30007KT P6SM OVC020
     FM181600 27004KT P6SM OVC040
     FM190700 27004KT P6SM BKN022=



000
FTUS41 KRLX 180900 AAA
TAFCRW
TAF AMD
KCRW 180919Z 1809/1906 33008KT P6SM OVC024
     FM181600 00000KT P6SM BKN070=



000
FTUS41 KRLX 180900 AAA
TAFBKW
TAF AMD
KBKW 180919Z 1809/1906 33011KT P6SM OVC015
     FM181800 31005KT P6SM BKN070=



000
FTUS41 KRLX 180900 AAA
TAFHTS
TAF AMD
KHTS 180919Z 1809/1906 29004KT P6SM OVC022
     FM181400 33004KT P6SM BKN060=



000
FTUS41 KRLX 180900 AAA
TAFPKB
TAF AMD
KPKB 180919Z 1809/1906 28007KT P6SM OVC020
     FM181600 27004KT P6SM OVC040
     FM190500 27004KT P6SM BKN022=



000
FTUS41 KRLX 180900 AAA
TAFCKB
TAF AMD
KCKB 180919Z 1809/1906 30006KT P6SM OVC022
     FM181400 26005KT P6SM BKN070
     FM190400 26003KT P6SM BKN022=



000
FTUS41 KRLX 180900 AAA
TAFEKN
TAF AMD
KEKN 180919Z 1809/1906 31008KT P6SM OVC021
     FM181600 28006KT P6SM BKN040
     FM182100 28006KT P6SM BKN090
     FM190300 28004KT P6SM BKN020=



000
FTUS41 KRLX 180900 AAA
TAFHTS
TAF AMD
KHTS 180919Z 1809/1906 29004KT P6SM OVC022
     FM181400 33004KT P6SM BKN060=



000
FTUS41 KRLX 180900 AAA
TAFBKW
TAF AMD
KBKW 180919Z 1809/1906 33011KT P6SM OVC015
     FM181800 31005KT P6SM BKN070=



000
FTUS41 KRLX 180900 AAA
TAFEKN
TAF AMD
KEKN 180919Z 1809/1906 31008KT P6SM OVC021
     FM181600 28006KT P6SM BKN040
     FM182100 28006KT P6SM BKN090
     FM190300 28004KT P6SM BKN020=



000
FTUS41 KRLX 180900 AAA
TAFPKB
TAF AMD
KPKB 180919Z 1809/1906 28007KT P6SM OVC020
     FM181600 27004KT P6SM OVC040
     FM190500 27004KT P6SM BKN022=



000
FTUS41 KRLX 180900 AAA
TAFCRW
TAF AMD
KCRW 180919Z 1809/1906 33008KT P6SM OVC024
     FM181600 00000KT P6SM BKN070=



000
FTUS41 KRLX 180900 AAA
TAFCKB
TAF AMD
KCKB 180919Z 1809/1906 30006KT P6SM OVC022
     FM181400 26005KT P6SM BKN070
     FM190400 26003KT P6SM BKN022=



000
FTUS41 KRLX 180500
TAFPKB
TAF
KPKB 180540Z 1806/1906 32011KT P6SM OVC024
     FM181600 27004KT P6SM OVC040
     FM190500 27004KT P6SM BKN022=



000
FTUS41 KRLX 180500
TAFCKB
TAF
KCKB 180540Z 1806/1906 29008KT P6SM OVC030
     FM181400 26005KT P6SM BKN070
     FM190400 26003KT P6SM BKN022=



000
FTUS41 KRLX 180500
TAFCRW
TAF
KCRW 180540Z 1806/1906 31005KT P6SM OVC026
     FM181600 00000KT P6SM BKN070=



000
FTUS41 KRLX 180500
TAFEKN
TAF
KEKN 180540Z 1806/1906 32007G17KT P6SM OVC026
     FM181600 28006KT P6SM BKN040
     FM182100 28006KT P6SM BKN090
     FM190300 28004KT P6SM BKN020=



000
FTUS41 KRLX 180500
TAFBKW
TAF
KBKW 180540Z 1806/1906 27009KT P6SM OVC014
     FM181800 31005KT P6SM BKN070=



000
FTUS41 KRLX 180500
TAFHTS
TAF
KHTS 180540Z 1806/1906 30006KT P6SM OVC023
     FM181400 33004KT P6SM BKN060=



000
FTUS41 KRLX 180200 AAA
TAFCKB
TAF AMD
KCKB 180252Z 1803/1824 27008KT P6SM OVC025
     FM182300 25004KT P6SM BKN030=



000
FTUS41 KRLX 180200 AAA
TAFEKN
TAF AMD
KEKN 180252Z 1803/1824 27007KT P6SM OVC020
     FM181600 28006KT P6SM BKN025=



000
FTUS41 KRLX 180200 AAA
TAFHTS
TAF AMD
KHTS 180252Z 1803/1824 28006KT P6SM BKN025
     FM181000 29003KT P6SM SCT025 BKN100
     FM182000 27003KT P6SM BKN035
     FM182200 29003KT P6SM BKN030=



000
FTUS41 KRLX 180200 AAA
TAFCRW
TAF AMD
KCRW 180252Z 1803/1824 28007KT P6SM BKN025
     FM180800 30004KT P6SM BKN030
     FM181200 27004KT P6SM SCT030 BKN100
     FM182000 29003KT P6SM BKN040=



000
FTUS41 KRLX 180200 AAA
TAFPKB
TAF AMD
KPKB 180252Z 1803/1824 27007KT P6SM OVC025
     FM181700 26005KT P6SM BKN035=



000
FTUS41 KRLX 180200 AAB
TAFBKW
TAF AMD
KBKW 180252Z 1803/1824 30006KT P6SM BKN015
     FM180600 31007KT P6SM BKN025
     FM181000 30005KT P6SM SCT025 BKN100
     FM182100 30006KT P6SM BKN045=



000
FTUS41 KRLX 180100 AAA
TAFBKW
TAF AMD
KBKW 180118Z 1801/1824 30006KT P6SM BKN015
     FM180600 31007KT P6SM BKN025
     FM181000 30005KT P6SM SCT025 BKN100
     FM182100 30006KT P6SM BKN045=



000
FTUS41 KRLX 180100 AAA
TAFBKW
TAF AMD
KBKW 180118Z 1801/1824 30006KT P6SM BKN015
     FM180600 31007KT P6SM BKN025
     FM181000 30005KT P6SM SCT025 BKN100
     FM182100 30006KT P6SM BKN045=



000
FTUS41 KRLX 172300
TAFBKW
TAF
KBKW 172320Z 1800/1824 30006KT P6SM FEW015 SCT100
     FM180600 31007KT P6SM BKN025
     FM181000 30005KT P6SM SCT025 BKN100
     FM182100 30006KT P6SM BKN045=



000
FTUS41 KRLX 172300
TAFHTS
TAF
KHTS 172320Z 1800/1824 28006KT P6SM BKN025
     FM181000 29003KT P6SM SCT025 BKN100
     FM182000 27003KT P6SM BKN035
     FM182200 29003KT P6SM BKN030=



000
FTUS41 KRLX 172300
TAFPKB
TAF
KPKB 172320Z 1800/1824 27007KT P6SM OVC025
     FM181700 26005KT P6SM BKN035=



000
FTUS41 KRLX 172300
TAFEKN
TAF
KEKN 172320Z 1800/1824 27007KT P6SM OVC020
     FM181600 28006KT P6SM BKN025=



000
FTUS41 KRLX 172300
TAFCRW
TAF
KCRW 172320Z 1800/1824 28007KT P6SM BKN025
     FM180800 30004KT P6SM BKN030
     FM181200 27004KT P6SM SCT030 BKN100
     FM182000 29003KT P6SM BKN040=



000
FTUS41 KRLX 172300
TAFCKB
TAF
KCKB 172320Z 1800/1824 27008KT P6SM OVC025
     FM182300 25004KT P6SM BKN030=



000
FTUS41 KRLX 171900 AAA
TAFEKN
TAF AMD
KEKN 171941Z 1720/1818 27008G16KT 6SM -SHSN BKN014 OVC020
      TEMPO 1720/1721 4SM -SHSN BR BKN010
     FM172300 27009KT P6SM OVC020
     FM181400 29007KT P6SM BKN020=



000
FTUS41 KRLX 171900 AAA
TAFCRW
TAF AMD
KCRW 171924Z 1719/1818 27008G15KT P6SM SCT010 OVC020
      TEMPO 1719/1720 -SHSN
     FM172000 28008KT P6SM OVC025
     FM180200 27006KT P6SM BKN025
     FM181600 28005KT P6SM SCT025 BKN100=



000
FTUS41 KRLX 171900 AAA
TAFBKW
TAF AMD
KBKW 171922Z 1719/1818 28008G16KT P6SM BKN025
      TEMPO 1719/1721 SCT025
     FM172100 29010G15KT P6SM SCT025
     FM180200 29009KT P6SM BKN025
     FM181500 31006KT P6SM SCT020 BKN100=



000
FTUS41 KRLX 171700
TAFCKB
TAF
KCKB 171736Z 1718/1818 26010G17KT 6SM -SHSN SCT015 OVC025
      TEMPO 1718/1720 3SM -SHSN BR BKN015
     FM172300 27006KT P6SM OVC022
     FM180500 27006KT P6SM OVC015
     FM181400 27006KT P6SM BKN020=



000
FTUS41 KRLX 171700
TAFPKB
TAF
KPKB 171736Z 1718/1818 28008G17KT P6SM OVC025
     FM172300 28006KT P6SM OVC022
     FM181500 28005KT P6SM BKN025=



000
FTUS41 KRLX 171700
TAFEKN
TAF
KEKN 171736Z 1718/1818 27011G18KT 5SM -SHSN BKN014 OVC020
      TEMPO 1718/1721 2SM -SHSN BR BKN010
     FM172300 27009KT P6SM OVC016
     FM181400 29007KT P6SM BKN020=



000
FTUS41 KRLX 171700
TAFCRW
TAF
KCRW 171736Z 1718/1818 27008G15KT 6SM -SHSNDZ SCT010 OVC020
      TEMPO 1718/1720 5SM -SHSN BR BKN010
     FM172000 28008G16KT P6SM OVC020
     FM180200 27006KT P6SM OVC020
     FM181600 28005KT P6SM SCT025 BKN100=



000
FTUS41 KRLX 171700
TAFHTS
TAF
KHTS 171736Z 1718/1818 26007KT P6SM OVC025
     FM172300 28007KT P6SM OVC020
     FM181400 28004KT P6SM SCT025 BKN100=



000
FTUS41 KRLX 171700
TAFBKW
TAF
KBKW 171736Z 1718/1818 27008G17KT 6SM -SHSN BKN012 OVC025
      TEMPO 1718/1720 4SM -SHSN
     FM172100 29010G15KT P6SM OVC020
     FM180200 29009KT P6SM BKN018
     FM181500 31006KT P6SM SCT020 BKN100=



000
FTUS41 KRLX 171600 AAA
TAFHTS
TAF AMD
KHTS 171605Z 1716/1812 26007KT P6SM OVC018
     FM172100 26007KT P6SM OVC025
     FM172300 26007KT P6SM OVC016=



000
FTUS41 KRLX 171600 AAA
TAFCRW
TAF AMD
KCRW 171605Z 1716/1812 26008G15KT 6SM -SHSNDZ SCT010 OVC018
      TEMPO 1716/1718 5SM -SHSN BR BKN010
     FM171900 26008KT P6SM OVC015=



000
FTUS41 KRLX 171600 AAA
TAFPKB
TAF AMD
KPKB 171605Z 1716/1812 25008G15KT P6SM -SHSNDZ OVC025
     FM171800 26009KT P6SM OVC023=



000
FTUS41 KRLX 171600 AAA
TAFBKW
TAF AMD
KBKW 171605Z 1716/1812 27008G17KT 6SM -SHSNDZ SCT009 OVC015
      TEMPO 1716/1719 4SM -SHSN BR BKN008
     FM171900 29010G15KT P6SM OVC017
     FM180500 29009KT P6SM OVC010=



000
FTUS41 KRLX 171600 AAA
TAFEKN
TAF AMD
KEKN 171605Z 1716/1812 27011G18KT 6SM -SHSNDZ OVC014
      TEMPO 1716/1719 4SM -SHSN BR
     FM172300 27009KT P6SM OVC016=



000
FTUS41 KRLX 171600 AAA
TAFCKB
TAF AMD
KCKB 171605Z 1716/1812 26010G17KT 6SM -SHSNDZ OVC020
     FM180100 27006KT P6SM OVC022
     FM180500 27006KT P6SM OVC015=



000
FTUS41 KRLX 171100
TAFEKN
TAF
KEKN 171132Z 1712/1812 27011G18KT P6SM -DZ OVC013
      TEMPO 1712/1715 4SM -DZ OVC008
     FM171800 27012G19KT P6SM OVC016=



000
FTUS41 KRLX 171100
TAFPKB
TAF
KPKB 171132Z 1712/1812 25008KT P6SM -DZ OVC012
     FM171800 26009KT P6SM OVC023=



000
FTUS41 KRLX 171100
TAFCKB
TAF
KCKB 171132Z 1712/1812 25008KT P6SM -DZ OVC011
     FM171900 26010G15KT P6SM OVC016
     FM180100 27006KT P6SM OVC022
     FM180500 27006KT P6SM OVC015=



000
FTUS41 KRLX 171100
TAFCRW
TAF
KCRW 171132Z 1712/1812 26008KT P6SM -DZ OVC010
      TEMPO 1712/1715 5SM -DZ BKN008
     FM171900 26008KT P6SM OVC015=



000
FTUS41 KRLX 171100
TAFBKW
TAF
KBKW 171132Z 1712/1812 29010G16KT 6SM -DZ OVC008
      TEMPO 1712/1715 4SM -DZ BKN005
     FM171900 29010G15KT P6SM OVC017
     FM180500 29009KT P6SM OVC010=



000
FTUS41 KRLX 171100
TAFHTS
TAF
KHTS 171132Z 1712/1812 26008KT P6SM -DZ OVC012
      TEMPO 1712/1714 5SM -DZ OVC008
     FM171900 26007KT P6SM OVC018
     FM172100 26007KT P6SM OVC030
     FM172300 26007KT P6SM OVC016=



000
FTUS41 KRLX 170900 AAA
TAFCKB
TAF AMD
KCKB 170904Z 1709/1806 26008KT 6SM -RA BKN011 OVC014
     FM171400 25009G15KT P6SM OVC014=



000
FTUS41 KRLX 170900 AAA
TAFBKW
TAF AMD
KBKW 170904Z 1709/1806 29006KT 6SM -RA OVC008
     FM171400 29010G16KT P6SM OVC009=



000
FTUS41 KRLX 170900 AAA
TAFCKB
TAF AMD
KCKB 170904Z 1709/1806 26008KT 6SM -RA BKN011 OVC014
     FM171400 25009G15KT P6SM OVC014=



000
FTUS41 KRLX 170900 AAA
TAFPKB
TAF AMD
KPKB 170904Z 1709/1806 27009KT P6SM OVC013=



000
FTUS41 KRLX 170900 AAA
TAFHTS
TAF AMD
KHTS 170904Z 1709/1806 26007G17KT 6SM -RA BKN010 OVC016
     FM171400 26007KT P6SM OVC014=



000
FTUS41 KRLX 170900 AAA
TAFBKW
TAF AMD
KBKW 170904Z 1709/1806 29006KT 6SM -RA OVC008
     FM171400 29010G16KT P6SM OVC009=



000
FTUS41 KRLX 170900 AAA
TAFCRW
TAF AMD
KCRW 170904Z 1709/1806 26005KT P6SM OVC014
     FM171100 26008KT P6SM OVC010
     FM171200 26008KT P6SM -DZ OVC008
     FM171400 26008KT P6SM OVC015=



000
FTUS41 KRLX 170900 AAA
TAFEKN
TAF AMD
KEKN 170904Z 1709/1806 25009KT 6SM -DZ BKN010 OVC015
     FM171500 27011G15KT P6SM OVC015=



000
FTUS41 KRLX 170900 AAA
TAFPKB
TAF AMD
KPKB 170904Z 1709/1806 27009KT P6SM OVC013=



000
FTUS41 KRLX 170900 AAA
TAFEKN
TAF AMD
KEKN 170904Z 1709/1806 25009KT 6SM -DZ BKN010 OVC015
     FM171500 27011G15KT P6SM OVC015=



000
FTUS41 KRLX 170900 AAA
TAFHTS
TAF AMD
KHTS 170904Z 1709/1806 26007G17KT 6SM -RA BKN010 OVC016
     FM171400 26007KT P6SM OVC014=



000
FTUS41 KRLX 170900 AAA
TAFCRW
TAF AMD
KCRW 170904Z 1709/1806 26005KT P6SM OVC014
     FM171100 26008KT P6SM OVC010
     FM171200 26008KT P6SM -DZ OVC008
     FM171400 26008KT P6SM OVC015=



    US Dept of Commerce
    National Oceanic and Atmospheric Administration
    National Weather Service
    1325 East West Highway
    Silver Spring, MD 20910
    Page Author: NWS Internet Services Team
Disclaimer
Information Quality
Credits
Glossary
Privacy Policy
Freedom of Information Act (FOIA)
About Us
Career Opportunities